sensor_id;sensor_type;location;lat;lon;timestamp;temperature;humidity
45207;DHT22;30950;53.086;21.576;2023-05-13T00:02:07;10.00;87.50
45207;DHT22;30950;53.086;21.576;2023-05-13T00:04:35;10.00;88.10
45207;DHT22;30950;53.086;21.576;2023-05-13T00:07:02;10.00;88.00
45207;DHT22;30950;53.086;21.576;2023-05-13T00:09:29;9.90;88.30
45207;DHT22;30950;53.086;21.576;2023-05-13T00:11:57;9.90;88.80
45207;DHT22;30950;53.086;21.576;2023-05-13T00:14:24;9.80;89.40
45207;DHT22;30950;53.086;21.576;2023-05-13T00:16:51;9.80;90.10
45207;DHT22;30950;53.086;21.576;2023-05-13T00:19:18;9.80;90.30
45207;DHT22;30950;53.086;21.576;2023-05-13T00:21:46;9.80;90.30
45207;DHT22;30950;53.086;21.576;2023-05-13T00:24:13;9.80;90.60
45207;DHT22;30950;53.086;21.576;2023-05-13T00:26:41;9.70;90.60
45207;DHT22;30950;53.086;21.576;2023-05-13T00:29:08;9.70;91.00
45207;DHT22;30950;53.086;21.576;2023-05-13T00:31:35;9.70;90.80
45207;DHT22;30950;53.086;21.576;2023-05-13T00:34:03;9.70;91.00
45207;DHT22;30950;53.086;21.576;2023-05-13T00:36:31;9.60;91.00
45207;DHT22;30950;53.086;21.576;2023-05-13T00:38:58;9.60;91.10
45207;DHT22;30950;53.086;21.576;2023-05-13T00:41:25;9.60;91.30
45207;DHT22;30950;53.086;21.576;2023-05-13T00:43:55;9.50;91.30
45207;DHT22;30950;53.086;21.576;2023-05-13T00:46:24;9.50;91.60
45207;DHT22;30950;53.086;21.576;2023-05-13T00:48:51;9.50;91.60
45207;DHT22;30950;53.086;21.576;2023-05-13T00:51:19;9.50;91.70
45207;DHT22;30950;53.086;21.576;2023-05-13T00:53:46;9.50;91.80
45207;DHT22;30950;53.086;21.576;2023-05-13T00:56:20;9.40;91.70
45207;DHT22;30950;53.086;21.576;2023-05-13T00:58:48;9.40;91.80
45207;DHT22;30950;53.086;21.576;2023-05-13T01:01:47;9.40;91.80
45207;DHT22;30950;53.086;21.576;2023-05-13T01:10:18;9.20;92.20
45207;DHT22;30950;53.086;21.576;2023-05-13T01:12:52;9.20;92.40
45207;DHT22;30950;53.086;21.576;2023-05-13T01:15:26;9.20;92.50
45207;DHT22;30950;53.086;21.576;2023-05-13T01:20:30;9.10;93.10
45207;DHT22;30950;53.086;21.576;2023-05-13T01:22:58;9.10;93.90
45207;DHT22;30950;53.086;21.576;2023-05-13T01:25:25;9.10;93.70
45207;DHT22;30950;53.086;21.576;2023-05-13T01:27:53;9.10;93.80
45207;DHT22;30950;53.086;21.576;2023-05-13T01:30:20;9.00;94.10
45207;DHT22;30950;53.086;21.576;2023-05-13T01:32:50;9.00;94.50
45207;DHT22;30950;53.086;21.576;2023-05-13T01:35:19;9.00;94.80
45207;DHT22;30950;53.086;21.576;2023-05-13T01:37:47;9.00;95.40
45207;DHT22;30950;53.086;21.576;2023-05-13T01:40:16;8.90;95.30
45207;DHT22;30950;53.086;21.576;2023-05-13T01:43:02;8.90;95.50
45207;DHT22;30950;53.086;21.576;2023-05-13T01:45:29;8.90;95.70
45207;DHT22;30950;53.086;21.576;2023-05-13T01:47:58;8.80;95.80
45207;DHT22;30950;53.086;21.576;2023-05-13T01:50:34;8.90;96.30
45207;DHT22;30950;53.086;21.576;2023-05-13T01:53:02;8.90;96.50
45207;DHT22;30950;53.086;21.576;2023-05-13T01:55:29;8.80;96.80
45207;DHT22;30950;53.086;21.576;2023-05-13T01:57:58;8.90;97.20
45207;DHT22;30950;53.086;21.576;2023-05-13T02:00:25;8.90;97.30
45207;DHT22;30950;53.086;21.576;2023-05-13T02:02:52;8.80;97.30
45207;DHT22;30950;53.086;21.576;2023-05-13T02:05:20;8.80;97.60
45207;DHT22;30950;53.086;21.576;2023-05-13T02:07:48;8.80;97.80
45207;DHT22;30950;53.086;21.576;2023-05-13T02:10:15;8.80;97.90
45207;DHT22;30950;53.086;21.576;2023-05-13T02:12:42;8.80;98.30
45207;DHT22;30950;53.086;21.576;2023-05-13T02:15:09;8.70;98.30
45207;DHT22;30950;53.086;21.576;2023-05-13T02:17:37;8.70;99.00
45207;DHT22;30950;53.086;21.576;2023-05-13T02:20:05;8.70;99.00
45207;DHT22;30950;53.086;21.576;2023-05-13T02:22:34;8.70;99.10
45207;DHT22;30950;53.086;21.576;2023-05-13T02:25:03;8.70;99.00
45207;DHT22;30950;53.086;21.576;2023-05-13T02:27:30;8.70;99.20
45207;DHT22;30950;53.086;21.576;2023-05-13T02:29:57;9.00;99.30
45207;DHT22;30950;53.086;21.576;2023-05-13T02:32:25;8.60;99.60
45207;DHT22;30950;53.086;21.576;2023-05-13T02:34:52;8.60;99.60
45207;DHT22;30950;53.086;21.576;2023-05-13T02:37:20;8.50;99.70
45207;DHT22;30950;53.086;21.576;2023-05-13T02:39:56;8.50;99.70
45207;DHT22;30950;53.086;21.576;2023-05-13T02:42:23;8.50;99.70
45207;DHT22;30950;53.086;21.576;2023-05-13T02:44:51;8.50;99.90
45207;DHT22;30950;53.086;21.576;2023-05-13T02:47:19;8.40;99.90
45207;DHT22;30950;53.086;21.576;2023-05-13T02:49:46;8.40;99.90
45207;DHT22;30950;53.086;21.576;2023-05-13T02:52:13;8.40;99.90
45207;DHT22;30950;53.086;21.576;2023-05-13T02:54:41;8.40;99.90
45207;DHT22;30950;53.086;21.576;2023-05-13T02:57:08;8.40;99.90
45207;DHT22;30950;53.086;21.576;2023-05-13T02:59:36;8.30;99.90
45207;DHT22;30950;53.086;21.576;2023-05-13T03:02:04;8.30;99.90
45207;DHT22;30950;53.086;21.576;2023-05-13T03:04:31;8.30;99.90
45207;DHT22;30950;53.086;21.576;2023-05-13T03:06:59;8.30;99.90
45207;DHT22;30950;53.086;21.576;2023-05-13T03:09:26;8.30;99.90
45207;DHT22;30950;53.086;21.576;2023-05-13T03:11:53;8.30;99.90
45207;DHT22;30950;53.086;21.576;2023-05-13T03:14:20;8.30;99.90
45207;DHT22;30950;53.086;21.576;2023-05-13T03:16:49;8.40;99.90
45207;DHT22;30950;53.086;21.576;2023-05-13T03:19:16;8.40;99.90
45207;DHT22;30950;53.086;21.576;2023-05-13T03:21:44;8.40;99.90
45207;DHT22;30950;53.086;21.576;2023-05-13T03:24:14;8.40;99.90
45207;DHT22;30950;53.086;21.576;2023-05-13T03:26:42;8.40;99.90
45207;DHT22;30950;53.086;21.576;2023-05-13T03:29:09;8.40;99.90
45207;DHT22;30950;53.086;21.576;2023-05-13T03:31:37;8.40;99.90
45207;DHT22;30950;53.086;21.576;2023-05-13T03:34:05;8.50;99.90
45207;DHT22;30950;53.086;21.576;2023-05-13T03:36:33;8.50;99.90
45207;DHT22;30950;53.086;21.576;2023-05-13T03:39:00;8.50;99.90
45207;DHT22;30950;53.086;21.576;2023-05-13T03:41:29;8.60;99.90
45207;DHT22;30950;53.086;21.576;2023-05-13T03:43:58;8.60;99.90
45207;DHT22;30950;53.086;21.576;2023-05-13T03:46:26;8.70;99.90
45207;DHT22;30950;53.086;21.576;2023-05-13T03:48:55;8.80;99.90
45207;DHT22;30950;53.086;21.576;2023-05-13T03:51:23;8.80;99.90
45207;DHT22;30950;53.086;21.576;2023-05-13T03:53:50;8.90;99.90
45207;DHT22;30950;53.086;21.576;2023-05-13T03:56:17;8.90;99.90
45207;DHT22;30950;53.086;21.576;2023-05-13T03:58:44;9.00;99.90
45207;DHT22;30950;53.086;21.576;2023-05-13T04:01:12;9.00;99.90
45207;DHT22;30950;53.086;21.576;2023-05-13T04:03:39;9.10;99.90
45207;DHT22;30950;53.086;21.576;2023-05-13T04:06:09;9.20;99.90
45207;DHT22;30950;53.086;21.576;2023-05-13T04:08:36;9.20;99.90
45207;DHT22;30950;53.086;21.576;2023-05-13T04:11:03;9.30;99.90
45207;DHT22;30950;53.086;21.576;2023-05-13T04:13:33;9.40;99.90
45207;DHT22;30950;53.086;21.576;2023-05-13T04:16:02;9.40;99.90
45207;DHT22;30950;53.086;21.576;2023-05-13T04:18:29;9.60;99.90
45207;DHT22;30950;53.086;21.576;2023-05-13T04:20:57;9.60;99.90
45207;DHT22;30950;53.086;21.576;2023-05-13T04:23:24;9.60;99.90
45207;DHT22;30950;53.086;21.576;2023-05-13T04:25:52;9.70;99.90
45207;DHT22;30950;53.086;21.576;2023-05-13T04:28:19;9.80;99.90
45207;DHT22;30950;53.086;21.576;2023-05-13T04:30:48;9.90;99.90
45207;DHT22;30950;53.086;21.576;2023-05-13T04:33:16;9.90;99.90
45207;DHT22;30950;53.086;21.576;2023-05-13T04:35:45;10.00;99.90
45207;DHT22;30950;53.086;21.576;2023-05-13T04:38:12;10.10;99.90
45207;DHT22;30950;53.086;21.576;2023-05-13T04:40:40;10.20;99.90
45207;DHT22;30950;53.086;21.576;2023-05-13T04:43:10;10.20;99.90
45207;DHT22;30950;53.086;21.576;2023-05-13T04:45:47;10.30;99.90
45207;DHT22;30950;53.086;21.576;2023-05-13T04:48:15;10.40;99.90
45207;DHT22;30950;53.086;21.576;2023-05-13T04:50:46;10.50;99.90
45207;DHT22;30950;53.086;21.576;2023-05-13T04:53:16;10.60;99.90
45207;DHT22;30950;53.086;21.576;2023-05-13T04:55:47;10.70;99.90
45207;DHT22;30950;53.086;21.576;2023-05-13T04:58:15;10.80;99.90
45207;DHT22;30950;53.086;21.576;2023-05-13T05:00:42;10.90;99.80
45207;DHT22;30950;53.086;21.576;2023-05-13T05:03:10;11.00;99.70
45207;DHT22;30950;53.086;21.576;2023-05-13T05:05:37;11.10;99.90
45207;DHT22;30950;53.086;21.576;2023-05-13T05:08:06;11.20;99.90
45207;DHT22;30950;53.086;21.576;2023-05-13T05:10:34;11.30;99.40
45207;DHT22;30950;53.086;21.576;2023-05-13T05:13:01;11.40;99.00
45207;DHT22;30950;53.086;21.576;2023-05-13T05:15:29;11.50;98.60
45207;DHT22;30950;53.086;21.576;2023-05-13T05:17:58;11.60;98.40
45207;DHT22;30950;53.086;21.576;2023-05-13T05:20:27;11.80;98.00
45207;DHT22;30950;53.086;21.576;2023-05-13T05:22:57;11.90;97.30
45207;DHT22;30950;53.086;21.576;2023-05-13T05:25:27;12.00;96.80
45207;DHT22;30950;53.086;21.576;2023-05-13T05:27:54;12.10;96.40
45207;DHT22;30950;53.086;21.576;2023-05-13T05:30:23;12.40;96.00
45207;DHT22;30950;53.086;21.576;2023-05-13T05:32:58;12.20;95.50
45207;DHT22;30950;53.086;21.576;2023-05-13T05:35:26;12.50;95.30
45207;DHT22;30950;53.086;21.576;2023-05-13T05:37:54;12.60;94.90
45207;DHT22;30950;53.086;21.576;2023-05-13T05:40:23;12.70;94.50
45207;DHT22;30950;53.086;21.576;2023-05-13T05:42:50;12.90;94.00
45207;DHT22;30950;53.086;21.576;2023-05-13T05:45:18;13.10;93.60
45207;DHT22;30950;53.086;21.576;2023-05-13T05:47:45;13.10;93.30
45207;DHT22;30950;53.086;21.576;2023-05-13T05:50:12;13.30;92.90
45207;DHT22;30950;53.086;21.576;2023-05-13T05:52:40;13.40;92.70
45207;DHT22;30950;53.086;21.576;2023-05-13T05:55:08;13.60;92.20
45207;DHT22;30950;53.086;21.576;2023-05-13T05:57:36;13.70;91.50
45207;DHT22;30950;53.086;21.576;2023-05-13T06:00:03;13.90;90.90
45207;DHT22;30950;53.086;21.576;2023-05-13T06:02:41;14.00;90.50
45207;DHT22;30950;53.086;21.576;2023-05-13T06:05:11;14.20;89.80
45207;DHT22;30950;53.086;21.576;2023-05-13T06:07:40;14.30;88.20
45207;DHT22;30950;53.086;21.576;2023-05-13T06:10:07;14.50;86.80
45207;DHT22;30950;53.086;21.576;2023-05-13T06:12:35;14.70;85.20
45207;DHT22;30950;53.086;21.576;2023-05-13T06:15:02;14.80;83.90
45207;DHT22;30950;53.086;21.576;2023-05-13T06:17:32;15.00;82.50
45207;DHT22;30950;53.086;21.576;2023-05-13T06:19:59;15.10;81.40
45207;DHT22;30950;53.086;21.576;2023-05-13T06:22:26;15.20;80.10
45207;DHT22;30950;53.086;21.576;2023-05-13T06:24:54;15.40;79.50
45207;DHT22;30950;53.086;21.576;2023-05-13T06:27:22;15.50;78.40
45207;DHT22;30950;53.086;21.576;2023-05-13T06:29:49;15.70;77.40
45207;DHT22;30950;53.086;21.576;2023-05-13T06:32:19;15.80;76.70
45207;DHT22;30950;53.086;21.576;2023-05-13T06:34:47;15.90;75.80
45207;DHT22;30950;53.086;21.576;2023-05-13T06:37:14;16.00;75.00
45207;DHT22;30950;53.086;21.576;2023-05-13T06:39:42;16.20;74.80
45207;DHT22;30950;53.086;21.576;2023-05-13T06:42:10;16.30;73.90
45207;DHT22;30950;53.086;21.576;2023-05-13T06:44:45;16.60;73.50
45207;DHT22;30950;53.086;21.576;2023-05-13T06:47:12;16.60;72.50
45207;DHT22;30950;53.086;21.576;2023-05-13T06:49:42;16.70;71.80
45207;DHT22;30950;53.086;21.576;2023-05-13T06:52:10;16.90;70.10
45207;DHT22;30950;53.086;21.576;2023-05-13T06:54:37;17.10;69.70
45207;DHT22;30950;53.086;21.576;2023-05-13T06:57:05;17.30;68.00
45207;DHT22;30950;53.086;21.576;2023-05-13T06:59:35;17.40;67.90
45207;DHT22;30950;53.086;21.576;2023-05-13T07:02:02;17.60;67.30
45207;DHT22;30950;53.086;21.576;2023-05-13T07:04:29;17.70;67.30
45207;DHT22;30950;53.086;21.576;2023-05-13T07:06:56;17.80;66.90
45207;DHT22;30950;53.086;21.576;2023-05-13T07:09:24;17.90;66.40
45207;DHT22;30950;53.086;21.576;2023-05-13T07:11:51;18.00;66.00
45207;DHT22;30950;53.086;21.576;2023-05-13T07:14:19;18.10;66.10
45207;DHT22;30950;53.086;21.576;2023-05-13T07:16:47;18.20;66.00
45207;DHT22;30950;53.086;21.576;2023-05-13T07:19:14;18.20;65.60
45207;DHT22;30950;53.086;21.576;2023-05-13T07:21:41;18.30;65.50
45207;DHT22;30950;53.086;21.576;2023-05-13T07:24:09;18.40;65.20
45207;DHT22;30950;53.086;21.576;2023-05-13T07:26:36;18.50;64.90
45207;DHT22;30950;53.086;21.576;2023-05-13T07:29:03;18.60;63.70
45207;DHT22;30950;53.086;21.576;2023-05-13T07:31:31;18.70;63.70
45207;DHT22;30950;53.086;21.576;2023-05-13T07:33:58;18.80;63.80
45207;DHT22;30950;53.086;21.576;2023-05-13T07:36:25;18.80;63.50
45207;DHT22;30950;53.086;21.576;2023-05-13T07:38:54;19.00;63.40
45207;DHT22;30950;53.086;21.576;2023-05-13T07:41:21;19.10;62.90
45207;DHT22;30950;53.086;21.576;2023-05-13T07:43:48;19.20;62.20
45207;DHT22;30950;53.086;21.576;2023-05-13T07:46:15;19.30;61.70
45207;DHT22;30950;53.086;21.576;2023-05-13T07:48:43;19.30;61.20
45207;DHT22;30950;53.086;21.576;2023-05-13T07:51:10;19.40;60.00
45207;DHT22;30950;53.086;21.576;2023-05-13T07:53:37;19.50;59.10
45207;DHT22;30950;53.086;21.576;2023-05-13T07:56:04;19.70;59.40
45207;DHT22;30950;53.086;21.576;2023-05-13T07:58:32;19.80;59.10
45207;DHT22;30950;53.086;21.576;2023-05-13T08:00:59;19.90;57.60
45207;DHT22;30950;53.086;21.576;2023-05-13T08:03:27;20.00;56.50
45207;DHT22;30950;53.086;21.576;2023-05-13T08:05:54;20.10;57.00
45207;DHT22;30950;53.086;21.576;2023-05-13T08:08:21;20.20;57.00
45207;DHT22;30950;53.086;21.576;2023-05-13T08:10:48;20.30;56.30
45207;DHT22;30950;53.086;21.576;2023-05-13T08:13:16;20.40;55.90
45207;DHT22;30950;53.086;21.576;2023-05-13T08:15:43;20.40;55.70
45207;DHT22;30950;53.086;21.576;2023-05-13T08:18:10;20.50;55.40
45207;DHT22;30950;53.086;21.576;2023-05-13T08:20:38;20.60;55.10
45207;DHT22;30950;53.086;21.576;2023-05-13T08:23:05;20.70;54.80
45207;DHT22;30950;53.086;21.576;2023-05-13T08:25:32;20.80;54.30
45207;DHT22;30950;53.086;21.576;2023-05-13T08:28:00;20.80;53.60
45207;DHT22;30950;53.086;21.576;2023-05-13T08:30:27;20.90;53.90
45207;DHT22;30950;53.086;21.576;2023-05-13T08:32:55;21.00;52.50
45207;DHT22;30950;53.086;21.576;2023-05-13T08:35:22;21.20;51.50
45207;DHT22;30950;53.086;21.576;2023-05-13T08:37:50;21.30;51.20
45207;DHT22;30950;53.086;21.576;2023-05-13T08:40:17;21.40;51.10
45207;DHT22;30950;53.086;21.576;2023-05-13T08:42:46;21.50;50.40
45207;DHT22;30950;53.086;21.576;2023-05-13T08:45:18;21.60;49.90
45207;DHT22;30950;53.086;21.576;2023-05-13T08:47:54;21.70;50.20
45207;DHT22;30950;53.086;21.576;2023-05-13T08:50:22;21.70;49.80
45207;DHT22;30950;53.086;21.576;2023-05-13T08:52:51;21.80;48.60
45207;DHT22;30950;53.086;21.576;2023-05-13T08:55:21;21.90;47.60
45207;DHT22;30950;53.086;21.576;2023-05-13T08:57:50;22.00;47.60
45207;DHT22;30950;53.086;21.576;2023-05-13T09:00:18;22.00;46.80
45207;DHT22;30950;53.086;21.576;2023-05-13T09:02:49;22.10;45.90
45207;DHT22;30950;53.086;21.576;2023-05-13T09:05:16;22.20;45.20
45207;DHT22;30950;53.086;21.576;2023-05-13T09:07:44;22.30;45.60
45207;DHT22;30950;53.086;21.576;2023-05-13T09:10:11;22.40;45.30
45207;DHT22;30950;53.086;21.576;2023-05-13T09:12:53;22.50;45.30
45207;DHT22;30950;53.086;21.576;2023-05-13T09:15:25;22.50;44.60
45207;DHT22;30950;53.086;21.576;2023-05-13T09:17:58;22.60;44.50
45207;DHT22;30950;53.086;21.576;2023-05-13T09:20:26;22.60;44.80
45207;DHT22;30950;53.086;21.576;2023-05-13T09:22:56;22.70;45.30
45207;DHT22;30950;53.086;21.576;2023-05-13T09:25:24;22.80;45.00
45207;DHT22;30950;53.086;21.576;2023-05-13T09:27:57;22.90;44.00
45207;DHT22;30950;53.086;21.576;2023-05-13T09:30:26;22.90;43.00
45207;DHT22;30950;53.086;21.576;2023-05-13T09:33:17;22.90;43.00
45207;DHT22;30950;53.086;21.576;2023-05-13T09:35:49;22.90;41.30
45207;DHT22;30950;53.086;21.576;2023-05-13T09:38:25;23.00;42.30
45207;DHT22;30950;53.086;21.576;2023-05-13T09:40:55;23.20;40.90
45207;DHT22;30950;53.086;21.576;2023-05-13T09:43:24;23.40;40.70
45207;DHT22;30950;53.086;21.576;2023-05-13T09:45:53;23.40;39.90
45207;DHT22;30950;53.086;21.576;2023-05-13T09:48:25;23.40;40.50
45207;DHT22;30950;53.086;21.576;2023-05-13T09:50:53;23.50;39.90
45207;DHT22;30950;53.086;21.576;2023-05-13T09:53:23;23.70;40.10
45207;DHT22;30950;53.086;21.576;2023-05-13T09:55:53;23.80;40.10
45207;DHT22;30950;53.086;21.576;2023-05-13T09:58:23;24.00;40.30
45207;DHT22;30950;53.086;21.576;2023-05-13T10:00:50;24.00;40.90
45207;DHT22;30950;53.086;21.576;2023-05-13T10:03:18;24.00;39.80
45207;DHT22;30950;53.086;21.576;2023-05-13T10:05:47;24.00;40.40
45207;DHT22;30950;53.086;21.576;2023-05-13T10:08:16;24.00;40.20
45207;DHT22;30950;53.086;21.576;2023-05-13T10:10:44;23.90;40.40
45207;DHT22;30950;53.086;21.576;2023-05-13T10:13:17;23.90;40.10
45207;DHT22;30950;53.086;21.576;2023-05-13T10:15:52;23.90;39.70
45207;DHT22;30950;53.086;21.576;2023-05-13T10:18:21;24.00;40.10
45207;DHT22;30950;53.086;21.576;2023-05-13T10:20:48;24.10;40.40
45207;DHT22;30950;53.086;21.576;2023-05-13T10:23:21;24.20;40.40
45207;DHT22;30950;53.086;21.576;2023-05-13T10:25:50;24.20;40.50
45207;DHT22;30950;53.086;21.576;2023-05-13T10:28:18;24.20;40.80
45207;DHT22;30950;53.086;21.576;2023-05-13T10:30:50;24.30;41.10
45207;DHT22;30950;53.086;21.576;2023-05-13T10:33:18;24.40;41.00
45207;DHT22;30950;53.086;21.576;2023-05-13T10:36:15;24.60;40.80
45207;DHT22;30950;53.086;21.576;2023-05-13T10:44:45;24.50;40.00
45207;DHT22;30950;53.086;21.576;2023-05-13T10:47:15;24.40;40.30
45207;DHT22;30950;53.086;21.576;2023-05-13T10:49:52;24.30;40.10
45207;DHT22;30950;53.086;21.576;2023-05-13T10:52:19;24.20;40.20
45207;DHT22;30950;53.086;21.576;2023-05-13T10:55:00;24.10;40.20
45207;DHT22;30950;53.086;21.576;2023-05-13T10:57:38;24.00;40.30
45207;DHT22;30950;53.086;21.576;2023-05-13T11:00:15;24.00;40.30
45207;DHT22;30950;53.086;21.576;2023-05-13T11:02:44;23.90;41.10
45207;DHT22;30950;53.086;21.576;2023-05-13T11:05:20;23.90;40.90
45207;DHT22;30950;53.086;21.576;2023-05-13T11:07:55;23.80;41.60
45207;DHT22;30950;53.086;21.576;2023-05-13T11:10:27;24.00;41.20
45207;DHT22;30950;53.086;21.576;2023-05-13T11:15:51;24.40;40.80
45207;DHT22;30950;53.086;21.576;2023-05-13T11:18:23;24.70;40.90
45207;DHT22;30950;53.086;21.576;2023-05-13T11:21:00;24.80;40.20
45207;DHT22;30950;53.086;21.576;2023-05-13T11:23:55;24.90;39.70
45207;DHT22;30950;53.086;21.576;2023-05-13T11:26:19;24.80;39.80
45207;DHT22;30950;53.086;21.576;2023-05-13T11:29:03;24.70;39.90
45207;DHT22;30950;53.086;21.576;2023-05-13T11:31:45;24.70;39.20
45207;DHT22;30950;53.086;21.576;2023-05-13T11:34:16;24.70;39.20
45207;DHT22;30950;53.086;21.576;2023-05-13T11:39:31;24.70;37.90
45207;DHT22;30950;53.086;21.576;2023-05-13T11:42:00;24.80;38.60
45207;DHT22;30950;53.086;21.576;2023-05-13T11:44:28;24.90;38.50
45207;DHT22;30950;53.086;21.576;2023-05-13T11:46:57;25.00;38.50
45207;DHT22;30950;53.086;21.576;2023-05-13T11:52:03;25.20;38.10
45207;DHT22;30950;53.086;21.576;2023-05-13T11:54:30;25.20;38.10
45207;DHT22;30950;53.086;21.576;2023-05-13T11:56:58;25.40;38.10
45207;DHT22;30950;53.086;21.576;2023-05-13T11:59:25;25.60;37.40
45207;DHT22;30950;53.086;21.576;2023-05-13T12:02:00;25.80;37.60
45207;DHT22;30950;53.086;21.576;2023-05-13T12:04:29;26.00;37.30
45207;DHT22;30950;53.086;21.576;2023-05-13T12:06:57;26.10;37.50
45207;DHT22;30950;53.086;21.576;2023-05-13T12:09:24;26.30;37.40
45207;DHT22;30950;53.086;21.576;2023-05-13T12:11:52;26.40;37.50
45207;DHT22;30950;53.086;21.576;2023-05-13T12:14:20;26.40;36.90
45207;DHT22;30950;53.086;21.576;2023-05-13T12:16:47;26.40;36.20
45207;DHT22;30950;53.086;21.576;2023-05-13T12:19:15;26.20;36.30
45207;DHT22;30950;53.086;21.576;2023-05-13T12:21:43;26.10;36.50
45207;DHT22;30950;53.086;21.576;2023-05-13T12:24:20;25.90;36.90
45207;DHT22;30950;53.086;21.576;2023-05-13T12:26:48;25.90;36.60
45207;DHT22;30950;53.086;21.576;2023-05-13T12:29:15;25.90;36.90
45207;DHT22;30950;53.086;21.576;2023-05-13T12:32:01;25.90;36.40
45207;DHT22;30950;53.086;21.576;2023-05-13T12:34:33;26.10;36.20
45207;DHT22;30950;53.086;21.576;2023-05-13T12:37:11;26.20;36.40
45207;DHT22;30950;53.086;21.576;2023-05-13T12:39:40;26.30;37.20
45207;DHT22;30950;53.086;21.576;2023-05-13T12:42:15;26.50;36.70
45207;DHT22;30950;53.086;21.576;2023-05-13T12:44:43;26.70;35.10
45207;DHT22;30950;53.086;21.576;2023-05-13T12:47:12;26.80;35.30
45207;DHT22;30950;53.086;21.576;2023-05-13T12:49:55;27.00;35.20
45207;DHT22;30950;53.086;21.576;2023-05-13T12:52:24;27.60;35.50
45207;DHT22;30950;53.086;21.576;2023-05-13T12:54:51;28.00;34.80
45207;DHT22;30950;53.086;21.576;2023-05-13T12:57:18;28.60;35.20
45207;DHT22;30950;53.086;21.576;2023-05-13T12:59:46;29.30;35.00
45207;DHT22;30950;53.086;21.576;2023-05-13T13:02:14;29.80;34.10
45207;DHT22;30950;53.086;21.576;2023-05-13T13:04:41;29.90;33.60
45207;DHT22;30950;53.086;21.576;2023-05-13T13:07:08;29.60;32.70
45207;DHT22;30950;53.086;21.576;2023-05-13T13:09:38;29.10;32.90
45207;DHT22;30950;53.086;21.576;2023-05-13T13:12:06;28.50;33.10
45207;DHT22;30950;53.086;21.576;2023-05-13T13:14:33;28.00;33.60
45207;DHT22;30950;53.086;21.576;2023-05-13T13:17:00;27.70;33.40
45207;DHT22;30950;53.086;21.576;2023-05-13T13:19:27;27.30;33.90
45207;DHT22;30950;53.086;21.576;2023-05-13T13:21:55;27.00;34.40
45207;DHT22;30950;53.086;21.576;2023-05-13T13:24:22;26.80;34.20
45207;DHT22;30950;53.086;21.576;2023-05-13T13:26:49;26.70;35.00
45207;DHT22;30950;53.086;21.576;2023-05-13T13:29:16;26.60;35.00
45207;DHT22;30950;53.086;21.576;2023-05-13T13:31:44;26.50;34.90
45207;DHT22;30950;53.086;21.576;2023-05-13T13:34:12;26.70;35.50
45207;DHT22;30950;53.086;21.576;2023-05-13T13:36:40;26.80;35.50
45207;DHT22;30950;53.086;21.576;2023-05-13T13:39:07;26.90;35.50
45207;DHT22;30950;53.086;21.576;2023-05-13T13:41:35;26.90;34.50
45207;DHT22;30950;53.086;21.576;2023-05-13T13:44:03;26.90;35.20
45207;DHT22;30950;53.086;21.576;2023-05-13T13:46:30;27.10;35.00
45207;DHT22;30950;53.086;21.576;2023-05-13T13:48:57;27.50;34.60
45207;DHT22;30950;53.086;21.576;2023-05-13T13:51:24;27.90;34.80
45207;DHT22;30950;53.086;21.576;2023-05-13T13:53:52;28.60;34.70
45207;DHT22;30950;53.086;21.576;2023-05-13T13:56:19;29.30;34.30
45207;DHT22;30950;53.086;21.576;2023-05-13T13:58:47;29.90;34.60
45207;DHT22;30950;53.086;21.576;2023-05-13T14:01:14;30.50;34.50
45207;DHT22;30950;53.086;21.576;2023-05-13T14:03:41;30.80;33.40
45207;DHT22;30950;53.086;21.576;2023-05-13T14:06:09;30.60;33.20
45207;DHT22;30950;53.086;21.576;2023-05-13T14:08:36;30.20;33.00
45207;DHT22;30950;53.086;21.576;2023-05-13T14:11:04;29.80;32.80
45207;DHT22;30950;53.086;21.576;2023-05-13T14:13:31;29.50;33.50
45207;DHT22;30950;53.086;21.576;2023-05-13T14:15:58;29.40;33.50
45207;DHT22;30950;53.086;21.576;2023-05-13T14:18:26;29.40;33.80
45207;DHT22;30950;53.086;21.576;2023-05-13T14:20:53;29.40;34.00
45207;DHT22;30950;53.086;21.576;2023-05-13T14:23:20;29.60;33.60
45207;DHT22;30950;53.086;21.576;2023-05-13T14:25:48;29.80;33.90
45207;DHT22;30950;53.086;21.576;2023-05-13T14:28:15;30.10;33.30
45207;DHT22;30950;53.086;21.576;2023-05-13T14:30:43;30.10;33.30
45207;DHT22;30950;53.086;21.576;2023-05-13T14:33:10;30.00;33.20
45207;DHT22;30950;53.086;21.576;2023-05-13T14:35:38;29.90;33.30
45207;DHT22;30950;53.086;21.576;2023-05-13T14:38:05;29.90;32.80
45207;DHT22;30950;53.086;21.576;2023-05-13T14:40:33;29.90;32.80
45207;DHT22;30950;53.086;21.576;2023-05-13T14:43:00;30.00;33.00
45207;DHT22;30950;53.086;21.576;2023-05-13T14:45:28;30.20;32.60
45207;DHT22;30950;53.086;21.576;2023-05-13T14:47:55;30.60;33.10
45207;DHT22;30950;53.086;21.576;2023-05-13T14:50:23;30.90;32.40
45207;DHT22;30950;53.086;21.576;2023-05-13T14:52:50;31.20;32.40
45207;DHT22;30950;53.086;21.576;2023-05-13T14:55:17;31.50;31.80
45207;DHT22;30950;53.086;21.576;2023-05-13T14:57:44;31.70;31.50
45207;DHT22;30950;53.086;21.576;2023-05-13T15:00:12;31.60;31.20
45207;DHT22;30950;53.086;21.576;2023-05-13T15:02:39;31.30;31.30
45207;DHT22;30950;53.086;21.576;2023-05-13T15:05:07;31.10;31.50
45207;DHT22;30950;53.086;21.576;2023-05-13T15:07:34;30.70;31.50
45207;DHT22;30950;53.086;21.576;2023-05-13T15:10:02;30.40;31.50
45207;DHT22;30950;53.086;21.576;2023-05-13T15:12:29;29.90;31.50
45207;DHT22;30950;53.086;21.576;2023-05-13T15:14:57;29.50;31.60
45207;DHT22;30950;53.086;21.576;2023-05-13T15:17:25;29.00;31.90
45207;DHT22;30950;53.086;21.576;2023-05-13T15:19:53;28.60;32.20
45207;DHT22;30950;53.086;21.576;2023-05-13T15:22:20;28.10;32.20
45207;DHT22;30950;53.086;21.576;2023-05-13T15:24:47;27.70;32.80
45207;DHT22;30950;53.086;21.576;2023-05-13T15:27:14;27.30;32.90
45207;DHT22;30950;53.086;21.576;2023-05-13T15:29:43;26.90;33.20
45207;DHT22;30950;53.086;21.576;2023-05-13T15:32:10;26.70;33.70
45207;DHT22;30950;53.086;21.576;2023-05-13T15:34:38;26.40;34.00
45207;DHT22;30950;53.086;21.576;2023-05-13T15:37:05;26.20;34.50
45207;DHT22;30950;53.086;21.576;2023-05-13T15:39:32;26.00;34.90
45207;DHT22;30950;53.086;21.576;2023-05-13T15:41:59;25.80;35.20
45207;DHT22;30950;53.086;21.576;2023-05-13T15:44:27;25.70;34.70
45207;DHT22;30950;53.086;21.576;2023-05-13T15:46:54;25.60;35.50
45207;DHT22;30950;53.086;21.576;2023-05-13T15:49:22;25.60;35.50
45207;DHT22;30950;53.086;21.576;2023-05-13T15:51:50;25.60;35.70
45207;DHT22;30950;53.086;21.576;2023-05-13T15:54:19;25.70;35.80